Monterey Peninsula Airport
KMRY : rendu visible

Aérodrome :











RETROUVEZ-NOUS SUR...

 
LOGIN :

S'inscrire | Disclaimer

   EN    FR    IT 

 









Légende :    VFR   VFR Marginal   IFR   IFR Intensif   IFR Très Intensif
Visi : 
Plafond : 
>= 8 km
>= 3000ft
5 à 8 km
1000 à 3000 ft
1500m à 5 km
500 à 1000 ft
800 à 1500m
200 à 500 ft
< 800m
< 200 ft
Symboles :   Orages  Brouillard  Fortes neiges  Fortes précipitations  Vent > 20 kt






- Altitude de l'aérodrome : 257 ft
- Code IATA : MRY


KMRY - Monterey Peninsula

DERNIER METAR :
  • 200954Z AUTO 11007KT 10SM CLR 08/05 A3011 RMK AO2 SLP209 T00780050

METARs EXPIRÉS :
  • 200854Z AUTO 12006KT 10SM CLR 07/05 A3012 RMK AO2 SLP212 T00720050 58001
  • 200754Z AUTO 13003KT 10SM CLR 07/04 A3012 RMK AO2 SLP214 T00720044 401560044

TAF KMRY
Valide du 20 à 06h jusqu'au 21 à 06h UTC


200539Z 2006/2106 13005KT P6SM FEW200
FM202100 29007KT P6SM FEW250
FM210300 24004KT P6SM SCT200
FM210500 12004KT P6SM SCT200



MET'MAP, la Météo Aéronautique d'un coup d'oeil ! - Copyright ORBIFLY Décembre 2007 - Disclaimer

ORBIFLY MET'MAP TEAM :

Programmation & Développement : Alexandra Zaïnal
Sur une idée originale de : Baudouin d'Aumeries
Assistance à la programmation : Marc-Olivier Méhu
Soutien technique & logistique : Manuel Goepfert

Contact : metmap@orbifly.com




SOURCES & CREDITS :

   NOAA       Earth
Advisory